sensor_id;sensor_type;location;lat;lon;timestamp;temperature;humidity
35796;DHT22;21916;52.428;13.302;2023-07-31T00:00:34;15.30;99.90
35796;DHT22;21916;52.428;13.302;2023-07-31T00:03:00;15.30;99.90
35796;DHT22;21916;52.428;13.302;2023-07-31T00:05:25;15.20;99.90
35796;DHT22;21916;52.428;13.302;2023-07-31T00:07:51;15.30;99.90
35796;DHT22;21916;52.428;13.302;2023-07-31T00:10:19;15.30;99.90
35796;DHT22;21916;52.428;13.302;2023-07-31T00:12:45;15.30;99.90
35796;DHT22;21916;52.428;13.302;2023-07-31T00:15:13;15.30;99.90
35796;DHT22;21916;52.428;13.302;2023-07-31T00:17:39;15.30;99.90
35796;DHT22;21916;52.428;13.302;2023-07-31T00:20:06;15.30;99.90
35796;DHT22;21916;52.428;13.302;2023-07-31T00:22:32;15.30;99.90
35796;DHT22;21916;52.428;13.302;2023-07-31T00:24:58;15.30;99.90
35796;DHT22;21916;52.428;13.302;2023-07-31T00:27:25;15.30;99.90
35796;DHT22;21916;52.428;13.302;2023-07-31T00:29:51;15.40;99.90
35796;DHT22;21916;52.428;13.302;2023-07-31T00:32:17;15.30;99.90
35796;DHT22;21916;52.428;13.302;2023-07-31T00:34:43;15.30;99.90
35796;DHT22;21916;52.428;13.302;2023-07-31T00:37:09;15.30;99.90
35796;DHT22;21916;52.428;13.302;2023-07-31T00:39:35;15.30;99.90
35796;DHT22;21916;52.428;13.302;2023-07-31T00:42:01;15.20;99.90
35796;DHT22;21916;52.428;13.302;2023-07-31T00:44:27;15.30;99.90
35796;DHT22;21916;52.428;13.302;2023-07-31T00:46:54;15.30;99.90
35796;DHT22;21916;52.428;13.302;2023-07-31T00:49:20;15.30;99.90
35796;DHT22;21916;52.428;13.302;2023-07-31T00:51:47;15.30;99.90
35796;DHT22;21916;52.428;13.302;2023-07-31T00:54:12;15.30;99.90
35796;DHT22;21916;52.428;13.302;2023-07-31T00:56:40;15.30;99.90
35796;DHT22;21916;52.428;13.302;2023-07-31T00:59:06;15.30;99.90
35796;DHT22;21916;52.428;13.302;2023-07-31T01:01:32;15.30;99.90
35796;DHT22;21916;52.428;13.302;2023-07-31T01:03:58;15.30;99.90
35796;DHT22;21916;52.428;13.302;2023-07-31T01:12:04;15.40;99.90
35796;DHT22;21916;52.428;13.302;2023-07-31T01:14:32;15.40;99.90
35796;DHT22;21916;52.428;13.302;2023-07-31T01:16:58;15.30;99.90
35796;DHT22;21916;52.428;13.302;2023-07-31T01:19:25;15.50;99.90
35796;DHT22;21916;52.428;13.302;2023-07-31T01:27:57;15.50;99.90
35796;DHT22;21916;52.428;13.302;2023-07-31T01:30:27;15.60;99.90
35796;DHT22;21916;52.428;13.302;2023-07-31T01:32:56;15.60;99.90
35796;DHT22;21916;52.428;13.302;2023-07-31T01:35:22;15.70;99.90
35796;DHT22;21916;52.428;13.302;2023-07-31T01:37:52;15.70;99.90
35796;DHT22;21916;52.428;13.302;2023-07-31T01:40:19;15.70;99.90
35796;DHT22;21916;52.428;13.302;2023-07-31T01:42:45;15.70;99.90
35796;DHT22;21916;52.428;13.302;2023-07-31T01:45:12;15.70;99.90
35796;DHT22;21916;52.428;13.302;2023-07-31T01:47:38;15.70;99.90
35796;DHT22;21916;52.428;13.302;2023-07-31T01:50:04;15.80;99.90
35796;DHT22;21916;52.428;13.302;2023-07-31T01:52:30;15.80;99.90
35796;DHT22;21916;52.428;13.302;2023-07-31T01:54:56;15.70;99.90
35796;DHT22;21916;52.428;13.302;2023-07-31T01:57:21;15.70;99.90
35796;DHT22;21916;52.428;13.302;2023-07-31T01:59:47;15.70;99.90
35796;DHT22;21916;52.428;13.302;2023-07-31T02:02:13;15.70;99.90
35796;DHT22;21916;52.428;13.302;2023-07-31T02:04:39;15.70;99.90
35796;DHT22;21916;52.428;13.302;2023-07-31T02:07:07;15.70;99.90
35796;DHT22;21916;52.428;13.302;2023-07-31T02:09:33;15.60;99.90
35796;DHT22;21916;52.428;13.302;2023-07-31T02:11:59;15.70;99.90
35796;DHT22;21916;52.428;13.302;2023-07-31T02:17:32;15.60;99.90
35796;DHT22;21916;52.428;13.302;2023-07-31T02:20:00;15.60;99.90
35796;DHT22;21916;52.428;13.302;2023-07-31T02:22:26;15.60;99.90
35796;DHT22;21916;52.428;13.302;2023-07-31T02:24:52;15.50;99.90
35796;DHT22;21916;52.428;13.302;2023-07-31T02:27:17;15.50;99.90
35796;DHT22;21916;52.428;13.302;2023-07-31T02:29:44;15.60;99.90
35796;DHT22;21916;52.428;13.302;2023-07-31T02:32:12;15.70;99.90
35796;DHT22;21916;52.428;13.302;2023-07-31T02:34:38;15.60;99.90
35796;DHT22;21916;52.428;13.302;2023-07-31T02:37:04;15.60;99.90
35796;DHT22;21916;52.428;13.302;2023-07-31T02:39:30;15.60;99.90
35796;DHT22;21916;52.428;13.302;2023-07-31T02:41:55;15.60;99.90
35796;DHT22;21916;52.428;13.302;2023-07-31T02:44:22;15.60;99.90
35796;DHT22;21916;52.428;13.302;2023-07-31T02:46:48;15.60;99.90
35796;DHT22;21916;52.428;13.302;2023-07-31T02:49:14;15.50;99.90
35796;DHT22;21916;52.428;13.302;2023-07-31T02:51:40;15.50;99.90
35796;DHT22;21916;52.428;13.302;2023-07-31T02:54:06;15.50;99.90
35796;DHT22;21916;52.428;13.302;2023-07-31T02:56:32;15.40;99.90
35796;DHT22;21916;52.428;13.302;2023-07-31T02:58:58;15.30;99.90
35796;DHT22;21916;52.428;13.302;2023-07-31T03:01:24;15.30;99.90
35796;DHT22;21916;52.428;13.302;2023-07-31T03:03:50;15.30;99.90
35796;DHT22;21916;52.428;13.302;2023-07-31T03:06:16;15.30;99.90
35796;DHT22;21916;52.428;13.302;2023-07-31T03:08:42;15.20;99.90
35796;DHT22;21916;52.428;13.302;2023-07-31T03:11:08;15.10;99.90
35796;DHT22;21916;52.428;13.302;2023-07-31T03:13:33;15.20;99.90
35796;DHT22;21916;52.428;13.302;2023-07-31T03:15:59;15.20;99.90
35796;DHT22;21916;52.428;13.302;2023-07-31T03:18:25;15.20;99.90
35796;DHT22;21916;52.428;13.302;2023-07-31T03:20:51;15.10;99.90
35796;DHT22;21916;52.428;13.302;2023-07-31T03:23:17;15.20;99.90
35796;DHT22;21916;52.428;13.302;2023-07-31T03:25:59;15.20;99.90
35796;DHT22;21916;52.428;13.302;2023-07-31T03:28:28;15.20;99.90
35796;DHT22;21916;52.428;13.302;2023-07-31T03:30:54;15.20;99.90
35796;DHT22;21916;52.428;13.302;2023-07-31T03:33:20;15.30;99.90
35796;DHT22;21916;52.428;13.302;2023-07-31T03:35:46;15.30;99.90
35796;DHT22;21916;52.428;13.302;2023-07-31T03:38:12;15.30;99.90
35796;DHT22;21916;52.428;13.302;2023-07-31T03:40:37;15.30;99.90
35796;DHT22;21916;52.428;13.302;2023-07-31T03:43:03;15.30;99.90
35796;DHT22;21916;52.428;13.302;2023-07-31T03:45:29;15.30;99.90
35796;DHT22;21916;52.428;13.302;2023-07-31T03:47:55;15.30;99.90
35796;DHT22;21916;52.428;13.302;2023-07-31T03:50:23;15.40;99.90
35796;DHT22;21916;52.428;13.302;2023-07-31T03:52:51;15.40;99.90
35796;DHT22;21916;52.428;13.302;2023-07-31T03:55:16;15.40;99.90
35796;DHT22;21916;52.428;13.302;2023-07-31T03:57:43;15.40;99.90
35796;DHT22;21916;52.428;13.302;2023-07-31T04:00:10;15.40;99.90
35796;DHT22;21916;52.428;13.302;2023-07-31T04:02:40;15.40;99.90
35796;DHT22;21916;52.428;13.302;2023-07-31T04:05:07;15.40;99.90
35796;DHT22;21916;52.428;13.302;2023-07-31T04:07:33;15.40;99.90
35796;DHT22;21916;52.428;13.302;2023-07-31T04:09:59;15.40;99.90
35796;DHT22;21916;52.428;13.302;2023-07-31T04:12:26;15.40;99.90
35796;DHT22;21916;52.428;13.302;2023-07-31T04:14:52;15.50;99.90
35796;DHT22;21916;52.428;13.302;2023-07-31T04:17:18;15.50;99.90
35796;DHT22;21916;52.428;13.302;2023-07-31T04:19:44;15.50;99.90
35796;DHT22;21916;52.428;13.302;2023-07-31T04:22:10;15.50;99.90
35796;DHT22;21916;52.428;13.302;2023-07-31T04:24:36;15.60;99.90
35796;DHT22;21916;52.428;13.302;2023-07-31T04:27:01;15.60;99.90
35796;DHT22;21916;52.428;13.302;2023-07-31T04:29:27;15.60;99.90
35796;DHT22;21916;52.428;13.302;2023-07-31T04:31:53;15.60;99.90
35796;DHT22;21916;52.428;13.302;2023-07-31T04:34:19;15.60;99.90
35796;DHT22;21916;52.428;13.302;2023-07-31T04:36:45;15.60;99.90
35796;DHT22;21916;52.428;13.302;2023-07-31T04:39:11;15.60;99.90
35796;DHT22;21916;52.428;13.302;2023-07-31T04:41:37;15.60;99.90
35796;DHT22;21916;52.428;13.302;2023-07-31T04:44:03;15.60;99.90
35796;DHT22;21916;52.428;13.302;2023-07-31T04:46:31;15.70;99.90
35796;DHT22;21916;52.428;13.302;2023-07-31T04:48:57;15.80;99.90
35796;DHT22;21916;52.428;13.302;2023-07-31T04:51:23;15.80;99.90
35796;DHT22;21916;52.428;13.302;2023-07-31T04:53:49;15.70;99.90
35796;DHT22;21916;52.428;13.302;2023-07-31T04:56:15;15.80;99.90
35796;DHT22;21916;52.428;13.302;2023-07-31T04:58:41;15.80;99.90
35796;DHT22;21916;52.428;13.302;2023-07-31T05:01:08;15.80;99.90
35796;DHT22;21916;52.428;13.302;2023-07-31T05:03:34;15.90;99.90
35796;DHT22;21916;52.428;13.302;2023-07-31T05:06:00;15.90;99.90
35796;DHT22;21916;52.428;13.302;2023-07-31T05:08:26;16.00;99.90
35796;DHT22;21916;52.428;13.302;2023-07-31T05:10:52;16.00;99.90
35796;DHT22;21916;52.428;13.302;2023-07-31T05:13:18;16.00;99.90
35796;DHT22;21916;52.428;13.302;2023-07-31T05:15:43;16.10;99.90
35796;DHT22;21916;52.428;13.302;2023-07-31T05:18:09;16.10;99.90
35796;DHT22;21916;52.428;13.302;2023-07-31T05:20:36;16.10;99.90
35796;DHT22;21916;52.428;13.302;2023-07-31T05:23:02;16.00;99.90
35796;DHT22;21916;52.428;13.302;2023-07-31T05:25:28;16.10;99.90
35796;DHT22;21916;52.428;13.302;2023-07-31T05:27:54;16.10;99.90
35796;DHT22;21916;52.428;13.302;2023-07-31T05:30:20;16.10;99.90
35796;DHT22;21916;52.428;13.302;2023-07-31T05:32:47;16.20;99.90
35796;DHT22;21916;52.428;13.302;2023-07-31T05:35:13;16.20;99.90
35796;DHT22;21916;52.428;13.302;2023-07-31T05:37:39;16.20;99.90
35796;DHT22;21916;52.428;13.302;2023-07-31T05:40:05;16.30;99.90
35796;DHT22;21916;52.428;13.302;2023-07-31T05:42:31;16.30;99.90
35796;DHT22;21916;52.428;13.302;2023-07-31T05:44:57;16.30;99.90
35796;DHT22;21916;52.428;13.302;2023-07-31T05:47:23;16.30;99.90
35796;DHT22;21916;52.428;13.302;2023-07-31T05:49:49;16.40;99.90
35796;DHT22;21916;52.428;13.302;2023-07-31T05:52:15;16.40;99.90
35796;DHT22;21916;52.428;13.302;2023-07-31T05:54:42;16.50;99.90
35796;DHT22;21916;52.428;13.302;2023-07-31T05:57:07;16.40;99.90
35796;DHT22;21916;52.428;13.302;2023-07-31T05:59:33;16.30;99.90
35796;DHT22;21916;52.428;13.302;2023-07-31T06:01:59;16.40;99.90
35796;DHT22;21916;52.428;13.302;2023-07-31T06:04:25;16.40;99.90
35796;DHT22;21916;52.428;13.302;2023-07-31T06:06:51;16.40;99.90
35796;DHT22;21916;52.428;13.302;2023-07-31T06:09:17;16.50;99.90
35796;DHT22;21916;52.428;13.302;2023-07-31T06:11:43;16.60;99.90
35796;DHT22;21916;52.428;13.302;2023-07-31T06:14:09;16.60;99.90
35796;DHT22;21916;52.428;13.302;2023-07-31T06:16:35;16.50;99.90
35796;DHT22;21916;52.428;13.302;2023-07-31T06:19:02;16.50;99.90
35796;DHT22;21916;52.428;13.302;2023-07-31T06:21:27;16.60;99.90
35796;DHT22;21916;52.428;13.302;2023-07-31T06:23:53;16.50;99.90
35796;DHT22;21916;52.428;13.302;2023-07-31T06:26:19;16.50;99.90
35796;DHT22;21916;52.428;13.302;2023-07-31T06:28:45;16.50;99.90
35796;DHT22;21916;52.428;13.302;2023-07-31T06:31:12;16.50;99.90
35796;DHT22;21916;52.428;13.302;2023-07-31T06:33:38;16.50;99.90
35796;DHT22;21916;52.428;13.302;2023-07-31T06:36:04;16.60;99.90
35796;DHT22;21916;52.428;13.302;2023-07-31T06:38:30;16.70;99.90
35796;DHT22;21916;52.428;13.302;2023-07-31T06:40:56;16.80;99.90
35796;DHT22;21916;52.428;13.302;2023-07-31T06:43:21;16.80;99.90
35796;DHT22;21916;52.428;13.302;2023-07-31T06:45:47;16.90;99.90
35796;DHT22;21916;52.428;13.302;2023-07-31T06:48:16;16.90;99.90
35796;DHT22;21916;52.428;13.302;2023-07-31T06:50:42;16.60;99.90
35796;DHT22;21916;52.428;13.302;2023-07-31T06:53:08;16.40;99.90
35796;DHT22;21916;52.428;13.302;2023-07-31T06:55:34;16.40;99.90
35796;DHT22;21916;52.428;13.302;2023-07-31T06:58:00;16.40;99.90
35796;DHT22;21916;52.428;13.302;2023-07-31T07:00:27;16.40;99.90
35796;DHT22;21916;52.428;13.302;2023-07-31T07:02:54;16.30;99.90
35796;DHT22;21916;52.428;13.302;2023-07-31T07:05:20;16.30;99.90
35796;DHT22;21916;52.428;13.302;2023-07-31T07:07:49;16.20;99.90
35796;DHT22;21916;52.428;13.302;2023-07-31T07:10:15;16.20;99.90
35796;DHT22;21916;52.428;13.302;2023-07-31T07:12:40;16.20;99.90
35796;DHT22;21916;52.428;13.302;2023-07-31T07:15:07;16.10;99.90
35796;DHT22;21916;52.428;13.302;2023-07-31T07:17:33;16.10;99.90
35796;DHT22;21916;52.428;13.302;2023-07-31T07:20:00;16.10;99.90
35796;DHT22;21916;52.428;13.302;2023-07-31T07:22:26;16.20;99.90
35796;DHT22;21916;52.428;13.302;2023-07-31T07:24:53;16.30;99.90
35796;DHT22;21916;52.428;13.302;2023-07-31T07:27:19;16.30;99.90
35796;DHT22;21916;52.428;13.302;2023-07-31T07:29:45;16.40;99.90
35796;DHT22;21916;52.428;13.302;2023-07-31T07:32:12;16.40;99.90
35796;DHT22;21916;52.428;13.302;2023-07-31T07:34:38;16.40;99.90
35796;DHT22;21916;52.428;13.302;2023-07-31T07:37:04;16.50;99.90
35796;DHT22;21916;52.428;13.302;2023-07-31T07:39:30;16.60;99.90
35796;DHT22;21916;52.428;13.302;2023-07-31T07:41:56;16.70;99.90
35796;DHT22;21916;52.428;13.302;2023-07-31T07:44:21;16.80;99.90
35796;DHT22;21916;52.428;13.302;2023-07-31T07:46:47;16.90;99.90
35796;DHT22;21916;52.428;13.302;2023-07-31T07:49:13;16.90;99.90
35796;DHT22;21916;52.428;13.302;2023-07-31T07:51:39;16.80;99.90
35796;DHT22;21916;52.428;13.302;2023-07-31T07:54:05;16.70;99.90
35796;DHT22;21916;52.428;13.302;2023-07-31T07:56:32;16.80;99.90
35796;DHT22;21916;52.428;13.302;2023-07-31T07:58:58;16.70;99.90
35796;DHT22;21916;52.428;13.302;2023-07-31T08:01:24;16.50;99.90
35796;DHT22;21916;52.428;13.302;2023-07-31T08:03:50;16.40;99.90
35796;DHT22;21916;52.428;13.302;2023-07-31T08:06:16;16.40;99.90
35796;DHT22;21916;52.428;13.302;2023-07-31T08:08:42;16.40;99.90
35796;DHT22;21916;52.428;13.302;2023-07-31T08:11:08;16.30;99.90
35796;DHT22;21916;52.428;13.302;2023-07-31T08:13:34;16.40;99.90
35796;DHT22;21916;52.428;13.302;2023-07-31T08:16:03;16.30;99.90
35796;DHT22;21916;52.428;13.302;2023-07-31T08:18:31;16.40;99.90
35796;DHT22;21916;52.428;13.302;2023-07-31T08:20:57;16.40;99.90
35796;DHT22;21916;52.428;13.302;2023-07-31T08:23:23;16.40;99.90
35796;DHT22;21916;52.428;13.302;2023-07-31T08:25:49;16.40;99.90
35796;DHT22;21916;52.428;13.302;2023-07-31T08:28:16;16.40;99.90
35796;DHT22;21916;52.428;13.302;2023-07-31T08:30:42;16.50;99.90
35796;DHT22;21916;52.428;13.302;2023-07-31T08:33:08;16.70;99.90
35796;DHT22;21916;52.428;13.302;2023-07-31T08:35:34;16.80;99.90
35796;DHT22;21916;52.428;13.302;2023-07-31T08:38:00;17.00;99.90
35796;DHT22;21916;52.428;13.302;2023-07-31T08:40:26;17.00;99.90
35796;DHT22;21916;52.428;13.302;2023-07-31T08:42:54;17.00;99.90
35796;DHT22;21916;52.428;13.302;2023-07-31T08:45:22;17.10;99.90
35796;DHT22;21916;52.428;13.302;2023-07-31T08:47:51;17.10;99.90
35796;DHT22;21916;52.428;13.302;2023-07-31T08:50:20;17.20;99.90
35796;DHT22;21916;52.428;13.302;2023-07-31T08:52:48;17.20;99.90
35796;DHT22;21916;52.428;13.302;2023-07-31T08:55:14;17.20;99.90
35796;DHT22;21916;52.428;13.302;2023-07-31T08:57:41;17.30;99.90
35796;DHT22;21916;52.428;13.302;2023-07-31T09:00:08;17.30;99.90
35796;DHT22;21916;52.428;13.302;2023-07-31T09:02:46;17.40;99.90
35796;DHT22;21916;52.428;13.302;2023-07-31T09:05:12;17.70;99.90
35796;DHT22;21916;52.428;13.302;2023-07-31T09:07:39;17.70;99.90
35796;DHT22;21916;52.428;13.302;2023-07-31T09:10:06;17.80;99.90
35796;DHT22;21916;52.428;13.302;2023-07-31T09:12:33;17.90;99.90
35796;DHT22;21916;52.428;13.302;2023-07-31T09:14:59;18.00;99.90
35796;DHT22;21916;52.428;13.302;2023-07-31T09:17:34;17.90;99.90
35796;DHT22;21916;52.428;13.302;2023-07-31T09:20:16;17.70;99.90
35796;DHT22;21916;52.428;13.302;2023-07-31T09:22:43;17.50;99.90
35796;DHT22;21916;52.428;13.302;2023-07-31T09:25:20;17.40;99.90
35796;DHT22;21916;52.428;13.302;2023-07-31T09:30:15;17.20;99.90
35796;DHT22;21916;52.428;13.302;2023-07-31T09:32:40;17.10;99.90
35796;DHT22;21916;52.428;13.302;2023-07-31T09:37:39;17.30;99.90
35796;DHT22;21916;52.428;13.302;2023-07-31T09:40:05;17.40;99.90
35796;DHT22;21916;52.428;13.302;2023-07-31T09:42:31;17.40;99.90
35796;DHT22;21916;52.428;13.302;2023-07-31T09:45:09;17.50;99.90
35796;DHT22;21916;52.428;13.302;2023-07-31T09:47:35;17.60;99.90
35796;DHT22;21916;52.428;13.302;2023-07-31T09:50:04;17.80;99.90
35796;DHT22;21916;52.428;13.302;2023-07-31T09:52:32;17.80;99.90
35796;DHT22;21916;52.428;13.302;2023-07-31T09:54:58;17.70;99.90
35796;DHT22;21916;52.428;13.302;2023-07-31T09:57:24;17.70;99.90
35796;DHT22;21916;52.428;13.302;2023-07-31T09:59:52;17.80;99.90
35796;DHT22;21916;52.428;13.302;2023-07-31T10:02:23;17.90;99.90
35796;DHT22;21916;52.428;13.302;2023-07-31T10:04:50;17.90;99.90
35796;DHT22;21916;52.428;13.302;2023-07-31T10:07:18;17.90;99.90
35796;DHT22;21916;52.428;13.302;2023-07-31T10:09:44;18.00;99.90
35796;DHT22;21916;52.428;13.302;2023-07-31T10:12:13;18.00;99.90
35796;DHT22;21916;52.428;13.302;2023-07-31T10:14:41;18.00;99.90
35796;DHT22;21916;52.428;13.302;2023-07-31T10:17:08;18.10;99.90
35796;DHT22;21916;52.428;13.302;2023-07-31T10:19:35;18.00;99.90
35796;DHT22;21916;52.428;13.302;2023-07-31T10:22:03;18.00;99.90
35796;DHT22;21916;52.428;13.302;2023-07-31T10:24:29;18.20;99.90
35796;DHT22;21916;52.428;13.302;2023-07-31T10:26:58;18.30;99.90
35796;DHT22;21916;52.428;13.302;2023-07-31T10:29:26;18.50;99.90
35796;DHT22;21916;52.428;13.302;2023-07-31T10:31:54;18.60;99.90
35796;DHT22;21916;52.428;13.302;2023-07-31T10:34:21;18.70;99.90
35796;DHT22;21916;52.428;13.302;2023-07-31T10:36:47;18.90;99.90
35796;DHT22;21916;52.428;13.302;2023-07-31T10:39:37;19.20;99.90
35796;DHT22;21916;52.428;13.302;2023-07-31T10:42:14;19.60;99.90
35796;DHT22;21916;52.428;13.302;2023-07-31T10:44:47;20.20;99.90
35796;DHT22;21916;52.428;13.302;2023-07-31T10:47:15;21.10;99.90
35796;DHT22;21916;52.428;13.302;2023-07-31T10:49:45;21.40;99.90
35796;DHT22;21916;52.428;13.302;2023-07-31T10:52:13;21.70;99.90
35796;DHT22;21916;52.428;13.302;2023-07-31T10:54:39;22.10;99.90
35796;DHT22;21916;52.428;13.302;2023-07-31T10:57:20;21.90;99.90
35796;DHT22;21916;52.428;13.302;2023-07-31T10:59:47;22.10;99.90
35796;DHT22;21916;52.428;13.302;2023-07-31T11:02:26;22.80;99.90
35796;DHT22;21916;52.428;13.302;2023-07-31T11:05:08;22.90;99.90
35796;DHT22;21916;52.428;13.302;2023-07-31T11:07:48;22.50;99.90
35796;DHT22;21916;52.428;13.302;2023-07-31T11:10:18;22.30;99.90
35796;DHT22;21916;52.428;13.302;2023-07-31T11:12:46;22.00;99.90
35796;DHT22;21916;52.428;13.302;2023-07-31T11:15:12;21.80;99.90
35796;DHT22;21916;52.428;13.302;2023-07-31T11:17:39;21.60;99.90
35796;DHT22;21916;52.428;13.302;2023-07-31T11:20:06;21.50;99.90
35796;DHT22;21916;52.428;13.302;2023-07-31T11:22:35;21.40;99.90
35796;DHT22;21916;52.428;13.302;2023-07-31T11:25:03;21.40;99.90
35796;DHT22;21916;52.428;13.302;2023-07-31T11:27:30;21.40;99.90
35796;DHT22;21916;52.428;13.302;2023-07-31T11:30:03;21.40;99.90
35796;DHT22;21916;52.428;13.302;2023-07-31T11:32:29;21.30;99.90
35796;DHT22;21916;52.428;13.302;2023-07-31T11:34:55;21.50;99.90
35796;DHT22;21916;52.428;13.302;2023-07-31T11:37:22;21.70;99.90
35796;DHT22;21916;52.428;13.302;2023-07-31T11:40:00;21.70;99.90
35796;DHT22;21916;52.428;13.302;2023-07-31T11:42:26;21.50;99.90
35796;DHT22;21916;52.428;13.302;2023-07-31T11:44:52;21.30;99.90
35796;DHT22;21916;52.428;13.302;2023-07-31T11:47:19;21.10;99.90
35796;DHT22;21916;52.428;13.302;2023-07-31T11:49:45;21.00;99.90
35796;DHT22;21916;52.428;13.302;2023-07-31T11:52:12;20.90;99.90
35796;DHT22;21916;52.428;13.302;2023-07-31T11:54:39;20.70;99.90
35796;DHT22;21916;52.428;13.302;2023-07-31T11:57:06;20.70;99.90
35796;DHT22;21916;52.428;13.302;2023-07-31T11:59:32;20.70;99.90
35796;DHT22;21916;52.428;13.302;2023-07-31T12:01:58;20.80;99.90
35796;DHT22;21916;52.428;13.302;2023-07-31T12:04:24;20.70;99.90
35796;DHT22;21916;52.428;13.302;2023-07-31T12:06:53;20.80;99.90
35796;DHT22;21916;52.428;13.302;2023-07-31T12:09:19;20.90;99.90
35796;DHT22;21916;52.428;13.302;2023-07-31T12:11:47;20.90;99.90
35796;DHT22;21916;52.428;13.302;2023-07-31T12:14:41;20.90;99.90
35796;DHT22;21916;52.428;13.302;2023-07-31T12:17:07;20.90;99.90
35796;DHT22;21916;52.428;13.302;2023-07-31T12:19:34;21.00;99.90
35796;DHT22;21916;52.428;13.302;2023-07-31T12:22:00;20.90;99.90
35796;DHT22;21916;52.428;13.302;2023-07-31T12:24:27;20.80;99.90
35796;DHT22;21916;52.428;13.302;2023-07-31T12:26:53;20.80;99.90
35796;DHT22;21916;52.428;13.302;2023-07-31T12:29:20;20.60;99.90
35796;DHT22;21916;52.428;13.302;2023-07-31T12:31:46;20.70;99.90
35796;DHT22;21916;52.428;13.302;2023-07-31T12:34:20;20.60;99.90
35796;DHT22;21916;52.428;13.302;2023-07-31T12:36:49;20.60;99.90
35796;DHT22;21916;52.428;13.302;2023-07-31T12:39:15;20.90;99.90
35796;DHT22;21916;52.428;13.302;2023-07-31T12:41:41;21.60;99.90
35796;DHT22;21916;52.428;13.302;2023-07-31T12:44:06;22.30;99.90
35796;DHT22;21916;52.428;13.302;2023-07-31T12:46:33;22.20;99.90
35796;DHT22;21916;52.428;13.302;2023-07-31T12:48:58;22.10;99.90
35796;DHT22;21916;52.428;13.302;2023-07-31T12:51:24;22.20;99.90
35796;DHT22;21916;52.428;13.302;2023-07-31T12:53:50;22.40;99.90
35796;DHT22;21916;52.428;13.302;2023-07-31T12:56:16;22.50;99.90
35796;DHT22;21916;52.428;13.302;2023-07-31T12:58:43;22.10;99.90
35796;DHT22;21916;52.428;13.302;2023-07-31T13:01:09;22.30;99.90
35796;DHT22;21916;52.428;13.302;2023-07-31T13:03:35;22.50;99.90
35796;DHT22;21916;52.428;13.302;2023-07-31T13:06:01;22.40;99.90
35796;DHT22;21916;52.428;13.302;2023-07-31T13:08:27;22.00;99.90
35796;DHT22;21916;52.428;13.302;2023-07-31T13:10:53;21.50;99.90
35796;DHT22;21916;52.428;13.302;2023-07-31T13:13:19;21.40;99.90
35796;DHT22;21916;52.428;13.302;2023-07-31T13:15:45;21.10;99.90
35796;DHT22;21916;52.428;13.302;2023-07-31T13:18:11;21.00;99.90
35796;DHT22;21916;52.428;13.302;2023-07-31T13:20:37;20.90;99.90
35796;DHT22;21916;52.428;13.302;2023-07-31T13:23:03;20.90;99.90
35796;DHT22;21916;52.428;13.302;2023-07-31T13:25:29;20.70;99.90
35796;DHT22;21916;52.428;13.302;2023-07-31T13:27:55;20.80;99.90
35796;DHT22;21916;52.428;13.302;2023-07-31T13:30:21;21.30;99.90
35796;DHT22;21916;52.428;13.302;2023-07-31T13:32:47;21.90;99.90
35796;DHT22;21916;52.428;13.302;2023-07-31T13:35:13;22.50;99.90
35796;DHT22;21916;52.428;13.302;2023-07-31T13:37:39;22.60;99.90
35796;DHT22;21916;52.428;13.302;2023-07-31T13:40:05;22.90;99.90
35796;DHT22;21916;52.428;13.302;2023-07-31T13:42:32;22.90;99.90
35796;DHT22;21916;52.428;13.302;2023-07-31T13:44:58;22.60;99.90
35796;DHT22;21916;52.428;13.302;2023-07-31T13:47:24;22.50;99.90
35796;DHT22;21916;52.428;13.302;2023-07-31T13:49:50;22.30;99.90
35796;DHT22;21916;52.428;13.302;2023-07-31T13:52:16;22.40;99.90
35796;DHT22;21916;52.428;13.302;2023-07-31T13:54:42;22.20;99.90
35796;DHT22;21916;52.428;13.302;2023-07-31T13:57:08;22.10;99.90
35796;DHT22;21916;52.428;13.302;2023-07-31T13:59:34;22.10;99.90
35796;DHT22;21916;52.428;13.302;2023-07-31T14:02:02;22.10;99.90
35796;DHT22;21916;52.428;13.302;2023-07-31T14:04:29;22.10;99.90
35796;DHT22;21916;52.428;13.302;2023-07-31T14:06:56;22.20;99.90
35796;DHT22;21916;52.428;13.302;2023-07-31T14:09:22;22.10;99.90
35796;DHT22;21916;52.428;13.302;2023-07-31T14:11:48;22.20;99.90
35796;DHT22;21916;52.428;13.302;2023-07-31T14:14:14;22.20;99.90
35796;DHT22;21916;52.428;13.302;2023-07-31T14:16:40;22.00;99.90
35796;DHT22;21916;52.428;13.302;2023-07-31T14:19:05;21.90;99.90
35796;DHT22;21916;52.428;13.302;2023-07-31T14:21:33;21.80;99.90
35796;DHT22;21916;52.428;13.302;2023-07-31T14:23:59;21.60;99.90
35796;DHT22;21916;52.428;13.302;2023-07-31T14:26:25;21.70;99.90
35796;DHT22;21916;52.428;13.302;2023-07-31T14:28:50;21.70;99.90
35796;DHT22;21916;52.428;13.302;2023-07-31T14:31:16;21.80;99.90
35796;DHT22;21916;52.428;13.302;2023-07-31T14:33:42;21.90;99.90
35796;DHT22;21916;52.428;13.302;2023-07-31T14:36:08;21.90;99.90
35796;DHT22;21916;52.428;13.302;2023-07-31T14:38:34;21.90;99.90
35796;DHT22;21916;52.428;13.302;2023-07-31T14:41:00;21.80;99.90
35796;DHT22;21916;52.428;13.302;2023-07-31T14:43:26;21.70;99.90
35796;DHT22;21916;52.428;13.302;2023-07-31T14:45:52;21.70;99.90
35796;DHT22;21916;52.428;13.302;2023-07-31T14:48:19;21.70;99.90
35796;DHT22;21916;52.428;13.302;2023-07-31T14:50:45;21.60;99.90
35796;DHT22;21916;52.428;13.302;2023-07-31T14:53:11;21.60;99.90
35796;DHT22;21916;52.428;13.302;2023-07-31T14:55:37;21.50;99.90
35796;DHT22;21916;52.428;13.302;2023-07-31T14:58:04;21.40;99.90
35796;DHT22;21916;52.428;13.302;2023-07-31T15:00:30;21.40;99.90
35796;DHT22;21916;52.428;13.302;2023-07-31T15:02:56;21.40;99.90
35796;DHT22;21916;52.428;13.302;2023-07-31T15:05:21;21.40;99.90
35796;DHT22;21916;52.428;13.302;2023-07-31T15:07:48;21.40;99.90
35796;DHT22;21916;52.428;13.302;2023-07-31T15:10:14;21.30;99.90
35796;DHT22;21916;52.428;13.302;2023-07-31T15:12:41;21.30;99.90
35796;DHT22;21916;52.428;13.302;2023-07-31T15:15:08;21.30;99.90
35796;DHT22;21916;52.428;13.302;2023-07-31T15:17:34;21.30;99.90
35796;DHT22;21916;52.428;13.302;2023-07-31T15:20:00;20.90;99.90
35796;DHT22;21916;52.428;13.302;2023-07-31T15:22:27;20.70;99.90
35796;DHT22;21916;52.428;13.302;2023-07-31T15:24:53;20.60;99.90
35796;DHT22;21916;52.428;13.302;2023-07-31T15:27:19;20.60;99.90
35796;DHT22;21916;52.428;13.302;2023-07-31T15:29:45;20.30;99.90
35796;DHT22;21916;52.428;13.302;2023-07-31T15:32:10;20.20;99.90